sensor_id;sensor_type;location;lat;lon;timestamp;P1;durP1;ratioP1;P2;durP2;ratioP2
39264;SDS011;42646;51.910;7.724;2023-05-10T00:01:22;6.72;;;4.47;;
39264;SDS011;42646;51.910;7.724;2023-05-10T00:03:49;5.93;;;4.20;;
39264;SDS011;42646;51.910;7.724;2023-05-10T00:06:17;6.13;;;4.20;;
39264;SDS011;42646;51.910;7.724;2023-05-10T00:08:45;6.82;;;4.57;;
39264;SDS011;42646;51.910;7.724;2023-05-10T00:11:13;5.95;;;4.22;;
39264;SDS011;42646;51.910;7.724;2023-05-10T00:13:40;6.50;;;4.57;;
39264;SDS011;42646;51.910;7.724;2023-05-10T00:16:08;6.60;;;4.53;;
39264;SDS011;42646;51.910;7.724;2023-05-10T00:18:37;6.07;;;4.13;;
39264;SDS011;42646;51.910;7.724;2023-05-10T00:21:05;6.03;;;4.68;;
39264;SDS011;42646;51.910;7.724;2023-05-10T00:23:35;7.20;;;5.15;;
39264;SDS011;42646;51.910;7.724;2023-05-10T00:26:03;7.20;;;5.28;;
39264;SDS011;42646;51.910;7.724;2023-05-10T00:28:31;7.30;;;5.43;;
39264;SDS011;42646;51.910;7.724;2023-05-10T00:31:00;7.38;;;4.82;;
39264;SDS011;42646;51.910;7.724;2023-05-10T00:33:28;6.47;;;5.10;;
39264;SDS011;42646;51.910;7.724;2023-05-10T00:35:58;7.65;;;5.18;;
39264;SDS011;42646;51.910;7.724;2023-05-10T00:38:25;6.30;;;4.95;;
39264;SDS011;42646;51.910;7.724;2023-05-10T00:40:54;7.88;;;5.15;;
39264;SDS011;42646;51.910;7.724;2023-05-10T00:43:27;6.03;;;4.70;;
39264;SDS011;42646;51.910;7.724;2023-05-10T00:45:55;5.40;;;4.35;;
39264;SDS011;42646;51.910;7.724;2023-05-10T00:48:24;5.93;;;4.50;;
39264;SDS011;42646;51.910;7.724;2023-05-10T00:50:51;6.50;;;4.68;;
39264;SDS011;42646;51.910;7.724;2023-05-10T00:53:21;5.75;;;4.32;;
39264;SDS011;42646;51.910;7.724;2023-05-10T00:55:49;5.72;;;4.30;;
39264;SDS011;42646;51.910;7.724;2023-05-10T00:58:18;5.97;;;4.38;;
39264;SDS011;42646;51.910;7.724;2023-05-10T01:00:50;4.82;;;3.80;;
39264;SDS011;42646;51.910;7.724;2023-05-10T01:03:19;5.93;;;3.95;;
39264;SDS011;42646;51.910;7.724;2023-05-10T01:05:48;4.80;;;3.70;;
39264;SDS011;42646;51.910;7.724;2023-05-10T01:08:17;5.28;;;3.70;;
39264;SDS011;42646;51.910;7.724;2023-05-10T01:10:49;4.38;;;3.45;;
39264;SDS011;42646;51.910;7.724;2023-05-10T01:13:18;5.53;;;3.83;;
39264;SDS011;42646;51.910;7.724;2023-05-10T01:15:58;4.18;;;3.40;;
39264;SDS011;42646;51.910;7.724;2023-05-10T01:18:31;4.72;;;3.55;;
39264;SDS011;42646;51.910;7.724;2023-05-10T01:21:04;4.20;;;3.20;;
39264;SDS011;42646;51.910;7.724;2023-05-10T01:23:54;4.45;;;3.50;;
39264;SDS011;42646;51.910;7.724;2023-05-10T01:26:52;4.50;;;3.70;;
39264;SDS011;42646;51.910;7.724;2023-05-10T01:29:42;5.17;;;3.53;;
39264;SDS011;42646;51.910;7.724;2023-05-10T01:32:51;5.00;;;3.70;;
39264;SDS011;42646;51.910;7.724;2023-05-10T01:35:26;4.35;;;3.42;;
39264;SDS011;42646;51.910;7.724;2023-05-10T01:38:04;4.50;;;3.60;;
39264;SDS011;42646;51.910;7.724;2023-05-10T01:40:42;4.32;;;3.42;;
39264;SDS011;42646;51.910;7.724;2023-05-10T01:43:22;4.82;;;3.70;;
39264;SDS011;42646;51.910;7.724;2023-05-10T01:45:58;5.18;;;3.50;;
39264;SDS011;42646;51.910;7.724;2023-05-10T01:51:07;4.75;;;3.15;;
39264;SDS011;42646;51.910;7.724;2023-05-10T01:53:41;4.75;;;3.13;;
39264;SDS011;42646;51.910;7.724;2023-05-10T01:56:11;3.83;;;2.80;;
39264;SDS011;42646;51.910;7.724;2023-05-10T01:58:40;4.10;;;2.55;;
39264;SDS011;42646;51.910;7.724;2023-05-10T02:01:16;3.42;;;2.53;;
39264;SDS011;42646;51.910;7.724;2023-05-10T02:03:49;3.80;;;2.70;;
39264;SDS011;42646;51.910;7.724;2023-05-10T02:06:19;4.85;;;2.53;;
39264;SDS011;42646;51.910;7.724;2023-05-10T02:08:51;3.88;;;2.30;;
39264;SDS011;42646;51.910;7.724;2023-05-10T02:11:20;3.30;;;2.30;;
39264;SDS011;42646;51.910;7.724;2023-05-10T02:13:51;3.05;;;2.05;;
39264;SDS011;42646;51.910;7.724;2023-05-10T02:16:26;2.80;;;1.80;;
39264;SDS011;42646;51.910;7.724;2023-05-10T02:18:58;3.17;;;1.70;;
39264;SDS011;42646;51.910;7.724;2023-05-10T02:21:29;3.25;;;1.33;;
39264;SDS011;42646;51.910;7.724;2023-05-10T02:24:24;1.90;;;1.20;;
39264;SDS011;42646;51.910;7.724;2023-05-10T02:26:53;2.28;;;1.23;;
39264;SDS011;42646;51.910;7.724;2023-05-10T02:29:26;1.73;;;1.05;;
39264;SDS011;42646;51.910;7.724;2023-05-10T02:32:21;2.05;;;1.25;;
39264;SDS011;42646;51.910;7.724;2023-05-10T02:34:52;1.98;;;1.15;;
39264;SDS011;42646;51.910;7.724;2023-05-10T02:37:22;2.35;;;1.23;;
39264;SDS011;42646;51.910;7.724;2023-05-10T02:39:52;2.25;;;1.30;;
39264;SDS011;42646;51.910;7.724;2023-05-10T02:44:52;3.80;;;1.55;;
39264;SDS011;42646;51.910;7.724;2023-05-10T02:49:50;2.97;;;1.40;;
39264;SDS011;42646;51.910;7.724;2023-05-10T02:52:21;2.70;;;1.40;;
39264;SDS011;42646;51.910;7.724;2023-05-10T02:54:55;2.17;;;1.30;;
39264;SDS011;42646;51.910;7.724;2023-05-10T02:57:27;4.47;;;1.52;;
39264;SDS011;42646;51.910;7.724;2023-05-10T03:00:03;2.75;;;1.40;;
39264;SDS011;42646;51.910;7.724;2023-05-10T03:02:31;3.17;;;1.50;;
39264;SDS011;42646;51.910;7.724;2023-05-10T03:05:01;2.53;;;1.60;;
39264;SDS011;42646;51.910;7.724;2023-05-10T03:07:29;2.38;;;1.60;;
39264;SDS011;42646;51.910;7.724;2023-05-10T03:09:57;3.35;;;1.80;;
39264;SDS011;42646;51.910;7.724;2023-05-10T03:12:27;2.70;;;1.70;;
39264;SDS011;42646;51.910;7.724;2023-05-10T03:15:10;2.45;;;1.70;;
39264;SDS011;42646;51.910;7.724;2023-05-10T03:17:45;2.95;;;1.77;;
39264;SDS011;42646;51.910;7.724;2023-05-10T03:20:22;2.97;;;1.70;;
39264;SDS011;42646;51.910;7.724;2023-05-10T03:22:54;2.47;;;1.60;;
39264;SDS011;42646;51.910;7.724;2023-05-10T03:25:29;3.20;;;1.70;;
39264;SDS011;42646;51.910;7.724;2023-05-10T03:27:58;3.20;;;1.77;;
39264;SDS011;42646;51.910;7.724;2023-05-10T03:30:28;2.95;;;1.70;;
39264;SDS011;42646;51.910;7.724;2023-05-10T03:33:03;2.83;;;1.73;;
39264;SDS011;42646;51.910;7.724;2023-05-10T03:35:37;2.75;;;1.70;;
39264;SDS011;42646;51.910;7.724;2023-05-10T03:38:06;2.88;;;1.80;;
39264;SDS011;42646;51.910;7.724;2023-05-10T03:40:33;2.83;;;1.52;;
39264;SDS011;42646;51.910;7.724;2023-05-10T03:43:03;5.07;;;1.63;;
39264;SDS011;42646;51.910;7.724;2023-05-10T03:45:31;4.57;;;1.70;;
39264;SDS011;42646;51.910;7.724;2023-05-10T03:47:58;3.00;;;1.98;;
39264;SDS011;42646;51.910;7.724;2023-05-10T03:50:26;3.55;;;1.73;;
39264;SDS011;42646;51.910;7.724;2023-05-10T03:52:56;2.55;;;1.60;;
39264;SDS011;42646;51.910;7.724;2023-05-10T03:55:23;3.00;;;1.80;;
39264;SDS011;42646;51.910;7.724;2023-05-10T03:57:51;2.85;;;1.80;;
39264;SDS011;42646;51.910;7.724;2023-05-10T04:00:21;2.90;;;1.90;;
39264;SDS011;42646;51.910;7.724;2023-05-10T04:02:53;3.25;;;2.00;;
39264;SDS011;42646;51.910;7.724;2023-05-10T04:05:23;3.63;;;2.30;;
39264;SDS011;42646;51.910;7.724;2023-05-10T04:07:51;3.22;;;2.25;;
39264;SDS011;42646;51.910;7.724;2023-05-10T04:10:21;3.22;;;2.10;;
39264;SDS011;42646;51.910;7.724;2023-05-10T04:12:48;3.60;;;2.20;;
39264;SDS011;42646;51.910;7.724;2023-05-10T04:15:16;2.90;;;2.00;;
39264;SDS011;42646;51.910;7.724;2023-05-10T04:17:44;4.75;;;2.25;;
39264;SDS011;42646;51.910;7.724;2023-05-10T04:20:12;3.67;;;2.25;;
39264;SDS011;42646;51.910;7.724;2023-05-10T04:22:42;3.75;;;2.30;;
39264;SDS011;42646;51.910;7.724;2023-05-10T04:25:09;3.50;;;2.33;;
39264;SDS011;42646;51.910;7.724;2023-05-10T04:27:38;4.05;;;2.40;;
39264;SDS011;42646;51.910;7.724;2023-05-10T04:30:06;3.78;;;2.30;;
39264;SDS011;42646;51.910;7.724;2023-05-10T04:32:35;3.05;;;2.00;;
39264;SDS011;42646;51.910;7.724;2023-05-10T04:35:26;4.10;;;2.10;;
39264;SDS011;42646;51.910;7.724;2023-05-10T04:37:54;3.60;;;2.45;;
39264;SDS011;42646;51.910;7.724;2023-05-10T04:40:23;4.25;;;2.47;;
39264;SDS011;42646;51.910;7.724;2023-05-10T04:42:53;3.63;;;2.60;;
39264;SDS011;42646;51.910;7.724;2023-05-10T04:45:24;4.13;;;2.83;;
39264;SDS011;42646;51.910;7.724;2023-05-10T04:47:52;4.97;;;2.90;;
39264;SDS011;42646;51.910;7.724;2023-05-10T04:50:19;6.30;;;3.10;;
39264;SDS011;42646;51.910;7.724;2023-05-10T04:52:47;4.30;;;3.22;;
39264;SDS011;42646;51.910;7.724;2023-05-10T04:55:15;4.40;;;3.08;;
39264;SDS011;42646;51.910;7.724;2023-05-10T04:57:42;4.97;;;3.40;;
39264;SDS011;42646;51.910;7.724;2023-05-10T05:00:13;4.60;;;3.50;;
39264;SDS011;42646;51.910;7.724;2023-05-10T05:02:42;4.32;;;3.33;;
39264;SDS011;42646;51.910;7.724;2023-05-10T05:05:10;4.10;;;3.10;;
39264;SDS011;42646;51.910;7.724;2023-05-10T05:07:39;5.00;;;3.90;;
39264;SDS011;42646;51.910;7.724;2023-05-10T05:10:08;5.45;;;3.70;;
39264;SDS011;42646;51.910;7.724;2023-05-10T05:12:36;5.05;;;3.92;;
39264;SDS011;42646;51.910;7.724;2023-05-10T05:15:04;6.07;;;4.25;;
39264;SDS011;42646;51.910;7.724;2023-05-10T05:17:37;5.72;;;4.40;;
39264;SDS011;42646;51.910;7.724;2023-05-10T05:20:05;6.50;;;4.47;;
39264;SDS011;42646;51.910;7.724;2023-05-10T05:22:35;6.90;;;5.45;;
39264;SDS011;42646;51.910;7.724;2023-05-10T05:25:03;6.13;;;4.72;;
39264;SDS011;42646;51.910;7.724;2023-05-10T05:27:32;7.50;;;5.20;;
39264;SDS011;42646;51.910;7.724;2023-05-10T05:30:01;8.00;;;5.35;;
39264;SDS011;42646;51.910;7.724;2023-05-10T05:32:31;8.35;;;5.57;;
39264;SDS011;42646;51.910;7.724;2023-05-10T05:35:24;8.35;;;5.47;;
39264;SDS011;42646;51.910;7.724;2023-05-10T05:37:56;9.70;;;5.93;;
39264;SDS011;42646;51.910;7.724;2023-05-10T05:40:48;8.68;;;5.88;;
39264;SDS011;42646;51.910;7.724;2023-05-10T05:43:22;10.38;;;6.28;;
39264;SDS011;42646;51.910;7.724;2023-05-10T05:45:51;9.25;;;6.22;;
39264;SDS011;42646;51.910;7.724;2023-05-10T05:48:21;13.32;;;7.32;;
39264;SDS011;42646;51.910;7.724;2023-05-10T05:50:50;23.98;;;10.55;;
39264;SDS011;42646;51.910;7.724;2023-05-10T05:53:24;15.00;;;8.95;;
39264;SDS011;42646;51.910;7.724;2023-05-10T05:55:52;14.95;;;8.30;;
39264;SDS011;42646;51.910;7.724;2023-05-10T05:58:22;11.75;;;8.13;;
39264;SDS011;42646;51.910;7.724;2023-05-10T06:00:51;12.27;;;7.88;;
39264;SDS011;42646;51.910;7.724;2023-05-10T06:03:19;11.60;;;7.72;;
39264;SDS011;42646;51.910;7.724;2023-05-10T06:06:13;16.30;;;9.10;;
39264;SDS011;42646;51.910;7.724;2023-05-10T06:08:41;14.73;;;9.05;;
39264;SDS011;42646;51.910;7.724;2023-05-10T06:11:12;14.15;;;8.85;;
39264;SDS011;42646;51.910;7.724;2023-05-10T06:13:42;16.05;;;9.40;;
39264;SDS011;42646;51.910;7.724;2023-05-10T06:16:11;16.38;;;10.10;;
39264;SDS011;42646;51.910;7.724;2023-05-10T06:18:39;20.02;;;10.70;;
39264;SDS011;42646;51.910;7.724;2023-05-10T06:21:07;18.48;;;10.63;;
39264;SDS011;42646;51.910;7.724;2023-05-10T06:23:37;19.92;;;11.60;;
39264;SDS011;42646;51.910;7.724;2023-05-10T06:26:06;19.77;;;11.43;;
39264;SDS011;42646;51.910;7.724;2023-05-10T06:28:33;18.60;;;11.52;;
39264;SDS011;42646;51.910;7.724;2023-05-10T06:31:01;17.73;;;11.75;;
39264;SDS011;42646;51.910;7.724;2023-05-10T06:33:29;17.40;;;10.95;;
39264;SDS011;42646;51.910;7.724;2023-05-10T06:36:22;16.65;;;11.15;;
39264;SDS011;42646;51.910;7.724;2023-05-10T06:38:53;17.77;;;10.90;;
39264;SDS011;42646;51.910;7.724;2023-05-10T06:41:23;18.00;;;11.20;;
39264;SDS011;42646;51.910;7.724;2023-05-10T06:43:50;18.77;;;11.52;;
39264;SDS011;42646;51.910;7.724;2023-05-10T06:46:18;17.10;;;11.07;;
39264;SDS011;42646;51.910;7.724;2023-05-10T06:48:46;16.55;;;10.75;;
39264;SDS011;42646;51.910;7.724;2023-05-10T06:51:15;17.95;;;11.23;;
39264;SDS011;42646;51.910;7.724;2023-05-10T06:53:42;16.83;;;10.57;;
39264;SDS011;42646;51.910;7.724;2023-05-10T06:56:11;17.77;;;11.00;;
39264;SDS011;42646;51.910;7.724;2023-05-10T06:58:39;16.10;;;10.45;;
39264;SDS011;42646;51.910;7.724;2023-05-10T07:01:07;15.52;;;10.40;;
39264;SDS011;42646;51.910;7.724;2023-05-10T07:03:35;16.08;;;10.63;;
39264;SDS011;42646;51.910;7.724;2023-05-10T07:06:04;18.48;;;11.85;;
39264;SDS011;42646;51.910;7.724;2023-05-10T07:08:41;18.92;;;12.38;;
39264;SDS011;42646;51.910;7.724;2023-05-10T07:11:09;19.48;;;13.05;;
39264;SDS011;42646;51.910;7.724;2023-05-10T07:13:38;18.67;;;12.85;;
39264;SDS011;42646;51.910;7.724;2023-05-10T07:16:10;21.90;;;14.07;;
39264;SDS011;42646;51.910;7.724;2023-05-10T07:18:38;24.52;;;14.65;;
39264;SDS011;42646;51.910;7.724;2023-05-10T07:21:06;23.20;;;15.30;;
39264;SDS011;42646;51.910;7.724;2023-05-10T07:23:34;23.55;;;15.63;;
39264;SDS011;42646;51.910;7.724;2023-05-10T07:26:02;24.95;;;16.65;;
39264;SDS011;42646;51.910;7.724;2023-05-10T07:28:31;27.52;;;16.90;;
39264;SDS011;42646;51.910;7.724;2023-05-10T07:31:03;26.60;;;17.67;;
39264;SDS011;42646;51.910;7.724;2023-05-10T07:33:35;29.15;;;19.23;;
39264;SDS011;42646;51.910;7.724;2023-05-10T07:36:03;29.55;;;19.10;;
39264;SDS011;42646;51.910;7.724;2023-05-10T07:38:33;29.88;;;19.77;;
39264;SDS011;42646;51.910;7.724;2023-05-10T07:41:02;29.75;;;18.95;;
39264;SDS011;42646;51.910;7.724;2023-05-10T07:43:30;30.85;;;19.30;;
39264;SDS011;42646;51.910;7.724;2023-05-10T07:45:58;30.65;;;19.45;;
39264;SDS011;42646;51.910;7.724;2023-05-10T07:48:27;33.63;;;20.63;;
39264;SDS011;42646;51.910;7.724;2023-05-10T07:50:55;35.90;;;22.13;;
39264;SDS011;42646;51.910;7.724;2023-05-10T07:53:22;37.63;;;21.42;;
39264;SDS011;42646;51.910;7.724;2023-05-10T07:55:50;33.53;;;21.08;;
39264;SDS011;42646;51.910;7.724;2023-05-10T07:58:18;35.78;;;21.75;;
39264;SDS011;42646;51.910;7.724;2023-05-10T08:00:47;34.35;;;21.17;;
39264;SDS011;42646;51.910;7.724;2023-05-10T08:03:41;34.75;;;22.58;;
39264;SDS011;42646;51.910;7.724;2023-05-10T08:06:09;33.85;;;20.60;;
39264;SDS011;42646;51.910;7.724;2023-05-10T08:08:38;32.25;;;20.45;;
39264;SDS011;42646;51.910;7.724;2023-05-10T08:11:10;33.60;;;21.37;;
39264;SDS011;42646;51.910;7.724;2023-05-10T08:13:39;31.25;;;19.45;;
39264;SDS011;42646;51.910;7.724;2023-05-10T08:16:06;31.20;;;19.90;;
39264;SDS011;42646;51.910;7.724;2023-05-10T08:18:34;32.13;;;20.83;;
39264;SDS011;42646;51.910;7.724;2023-05-10T08:21:04;31.85;;;19.65;;
39264;SDS011;42646;51.910;7.724;2023-05-10T08:23:33;33.88;;;21.48;;
39264;SDS011;42646;51.910;7.724;2023-05-10T08:26:00;32.90;;;19.90;;
39264;SDS011;42646;51.910;7.724;2023-05-10T08:28:28;35.80;;;21.58;;
39264;SDS011;42646;51.910;7.724;2023-05-10T08:30:56;35.53;;;21.63;;
39264;SDS011;42646;51.910;7.724;2023-05-10T08:33:24;31.77;;;19.38;;
39264;SDS011;42646;51.910;7.724;2023-05-10T08:35:52;32.35;;;19.05;;
39264;SDS011;42646;51.910;7.724;2023-05-10T08:38:21;29.17;;;19.13;;
39264;SDS011;42646;51.910;7.724;2023-05-10T08:40:48;28.60;;;17.60;;
39264;SDS011;42646;51.910;7.724;2023-05-10T08:43:17;28.15;;;18.00;;
39264;SDS011;42646;51.910;7.724;2023-05-10T08:48:17;26.67;;;17.45;;
39264;SDS011;42646;51.910;7.724;2023-05-10T08:50:46;29.05;;;18.25;;
39264;SDS011;42646;51.910;7.724;2023-05-10T08:53:14;25.08;;;16.52;;
39264;SDS011;42646;51.910;7.724;2023-05-10T08:55:45;29.70;;;18.75;;
39264;SDS011;42646;51.910;7.724;2023-05-10T08:58:13;30.17;;;17.98;;
39264;SDS011;42646;51.910;7.724;2023-05-10T09:00:42;27.25;;;17.08;;
39264;SDS011;42646;51.910;7.724;2023-05-10T09:03:10;25.85;;;17.52;;
39264;SDS011;42646;51.910;7.724;2023-05-10T09:05:39;27.80;;;17.42;;
39264;SDS011;42646;51.910;7.724;2023-05-10T09:08:07;28.67;;;18.23;;
39264;SDS011;42646;51.910;7.724;2023-05-10T09:10:36;28.25;;;18.50;;
39264;SDS011;42646;51.910;7.724;2023-05-10T09:13:07;28.08;;;17.92;;
39264;SDS011;42646;51.910;7.724;2023-05-10T09:15:39;23.20;;;15.85;;
39264;SDS011;42646;51.910;7.724;2023-05-10T09:18:07;23.10;;;15.23;;
39264;SDS011;42646;51.910;7.724;2023-05-10T09:20:35;25.42;;;15.18;;
39264;SDS011;42646;51.910;7.724;2023-05-10T09:23:03;22.73;;;14.75;;
39264;SDS011;42646;51.910;7.724;2023-05-10T09:25:31;24.92;;;15.50;;
39264;SDS011;42646;51.910;7.724;2023-05-10T09:28:25;22.45;;;13.90;;
39264;SDS011;42646;51.910;7.724;2023-05-10T09:30:53;23.25;;;14.35;;
39264;SDS011;42646;51.910;7.724;2023-05-10T09:33:22;19.08;;;13.23;;
39264;SDS011;42646;51.910;7.724;2023-05-10T09:35:51;18.60;;;12.63;;
39264;SDS011;42646;51.910;7.724;2023-05-10T09:38:19;20.83;;;12.65;;
39264;SDS011;42646;51.910;7.724;2023-05-10T09:40:50;23.00;;;14.23;;
39264;SDS011;42646;51.910;7.724;2023-05-10T09:43:22;21.05;;;13.32;;
39264;SDS011;42646;51.910;7.724;2023-05-10T09:45:51;19.35;;;13.45;;
39264;SDS011;42646;51.910;7.724;2023-05-10T09:48:21;19.58;;;13.50;;
39264;SDS011;42646;51.910;7.724;2023-05-10T09:50:56;19.02;;;13.20;;
39264;SDS011;42646;51.910;7.724;2023-05-10T09:53:24;19.73;;;13.60;;
39264;SDS011;42646;51.910;7.724;2023-05-10T09:55:52;20.55;;;13.57;;
39264;SDS011;42646;51.910;7.724;2023-05-10T09:58:21;21.67;;;13.35;;
39264;SDS011;42646;51.910;7.724;2023-05-10T10:00:48;19.65;;;12.82;;
39264;SDS011;42646;51.910;7.724;2023-05-10T10:03:19;21.65;;;13.50;;
39264;SDS011;42646;51.910;7.724;2023-05-10T10:05:49;19.43;;;13.77;;
39264;SDS011;42646;51.910;7.724;2023-05-10T10:08:19;18.35;;;12.75;;
39264;SDS011;42646;51.910;7.724;2023-05-10T10:10:48;21.52;;;12.25;;
39264;SDS011;42646;51.910;7.724;2023-05-10T10:13:19;16.77;;;11.65;;
39264;SDS011;42646;51.910;7.724;2023-05-10T10:15:47;15.02;;;10.40;;
39264;SDS011;42646;51.910;7.724;2023-05-10T10:18:17;15.95;;;10.40;;
39264;SDS011;42646;51.910;7.724;2023-05-10T10:20:53;16.67;;;11.30;;
39264;SDS011;42646;51.910;7.724;2023-05-10T10:23:23;18.40;;;11.48;;
39264;SDS011;42646;51.910;7.724;2023-05-10T10:25:53;18.65;;;12.02;;
39264;SDS011;42646;51.910;7.724;2023-05-10T10:28:24;18.40;;;12.20;;
39264;SDS011;42646;51.910;7.724;2023-05-10T10:31:01;18.25;;;11.95;;
39264;SDS011;42646;51.910;7.724;2023-05-10T10:33:47;16.98;;;11.10;;
39264;SDS011;42646;51.910;7.724;2023-05-10T10:36:26;17.60;;;12.02;;
39264;SDS011;42646;51.910;7.724;2023-05-10T10:38:55;16.95;;;10.95;;
39264;SDS011;42646;51.910;7.724;2023-05-10T10:41:27;15.95;;;10.63;;
39264;SDS011;42646;51.910;7.724;2023-05-10T10:47:22;15.95;;;10.80;;
39264;SDS011;42646;51.910;7.724;2023-05-10T10:49:53;13.93;;;9.93;;
39264;SDS011;42646;51.910;7.724;2023-05-10T10:52:31;15.00;;;10.02;;
39264;SDS011;42646;51.910;7.724;2023-05-10T10:55:05;17.02;;;11.93;;
39264;SDS011;42646;51.910;7.724;2023-05-10T10:57:42;16.10;;;11.15;;
39264;SDS011;42646;51.910;7.724;2023-05-10T11:00:18;18.88;;;11.38;;
39264;SDS011;42646;51.910;7.724;2023-05-10T11:02:49;14.30;;;9.57;;
39264;SDS011;42646;51.910;7.724;2023-05-10T11:08:13;14.68;;;10.40;;
39264;SDS011;42646;51.910;7.724;2023-05-10T11:10:51;15.98;;;11.57;;
39264;SDS011;42646;51.910;7.724;2023-05-10T11:13:27;18.60;;;11.23;;
39264;SDS011;42646;51.910;7.724;2023-05-10T11:15:56;14.15;;;10.65;;
39264;SDS011;42646;51.910;7.724;2023-05-10T11:18:27;14.05;;;10.60;;
39264;SDS011;42646;51.910;7.724;2023-05-10T11:21:00;14.90;;;10.88;;
39264;SDS011;42646;51.910;7.724;2023-05-10T11:23:31;14.10;;;10.45;;
39264;SDS011;42646;51.910;7.724;2023-05-10T11:26:14;15.50;;;10.80;;
39264;SDS011;42646;51.910;7.724;2023-05-10T11:28:42;13.95;;;10.20;;
39264;SDS011;42646;51.910;7.724;2023-05-10T11:31:10;15.90;;;11.50;;
39264;SDS011;42646;51.910;7.724;2023-05-10T11:33:43;16.67;;;11.75;;
39264;SDS011;42646;51.910;7.724;2023-05-10T11:36:15;17.40;;;11.82;;
39264;SDS011;42646;51.910;7.724;2023-05-10T11:41:13;17.83;;;12.48;;
39264;SDS011;42646;51.910;7.724;2023-05-10T11:43:42;17.23;;;11.98;;
39264;SDS011;42646;51.910;7.724;2023-05-10T11:46:13;14.60;;;10.70;;
39264;SDS011;42646;51.910;7.724;2023-05-10T11:48:40;14.07;;;10.13;;
39264;SDS011;42646;51.910;7.724;2023-05-10T11:51:10;14.57;;;10.20;;
39264;SDS011;42646;51.910;7.724;2023-05-10T11:53:42;16.30;;;11.20;;
39264;SDS011;42646;51.910;7.724;2023-05-10T11:56:10;16.20;;;11.35;;
39264;SDS011;42646;51.910;7.724;2023-05-10T11:58:38;16.25;;;11.45;;
39264;SDS011;42646;51.910;7.724;2023-05-10T12:01:08;18.95;;;13.85;;
39264;SDS011;42646;51.910;7.724;2023-05-10T12:03:37;20.95;;;13.15;;
39264;SDS011;42646;51.910;7.724;2023-05-10T12:06:07;17.50;;;12.80;;
39264;SDS011;42646;51.910;7.724;2023-05-10T12:08:34;17.63;;;11.98;;
39264;SDS011;42646;51.910;7.724;2023-05-10T12:11:07;16.63;;;11.80;;
39264;SDS011;42646;51.910;7.724;2023-05-10T12:13:39;17.50;;;12.13;;
39264;SDS011;42646;51.910;7.724;2023-05-10T12:16:15;17.85;;;12.35;;
39264;SDS011;42646;51.910;7.724;2023-05-10T12:18:43;17.52;;;12.38;;
39264;SDS011;42646;51.910;7.724;2023-05-10T12:21:12;16.30;;;11.10;;
39264;SDS011;42646;51.910;7.724;2023-05-10T12:23:40;19.02;;;12.48;;
39264;SDS011;42646;51.910;7.724;2023-05-10T12:26:10;16.15;;;11.30;;
39264;SDS011;42646;51.910;7.724;2023-05-10T12:28:38;18.75;;;12.18;;
39264;SDS011;42646;51.910;7.724;2023-05-10T12:31:07;18.08;;;11.93;;
39264;SDS011;42646;51.910;7.724;2023-05-10T12:33:36;17.30;;;12.90;;
39264;SDS011;42646;51.910;7.724;2023-05-10T12:36:09;17.85;;;12.02;;
39264;SDS011;42646;51.910;7.724;2023-05-10T12:38:38;18.70;;;11.10;;
39264;SDS011;42646;51.910;7.724;2023-05-10T12:41:10;14.82;;;11.10;;
39264;SDS011;42646;51.910;7.724;2023-05-10T12:43:41;15.10;;;11.30;;
39264;SDS011;42646;51.910;7.724;2023-05-10T12:46:11;15.77;;;11.40;;
39264;SDS011;42646;51.910;7.724;2023-05-10T12:48:40;17.02;;;11.45;;
39264;SDS011;42646;51.910;7.724;2023-05-10T12:53:42;15.88;;;11.20;;
39264;SDS011;42646;51.910;7.724;2023-05-10T12:56:16;16.70;;;11.05;;
39264;SDS011;42646;51.910;7.724;2023-05-10T12:58:44;15.40;;;11.02;;
39264;SDS011;42646;51.910;7.724;2023-05-10T13:01:14;17.42;;;11.30;;
39264;SDS011;42646;51.910;7.724;2023-05-10T13:03:42;17.67;;;11.15;;
39264;SDS011;42646;51.910;7.724;2023-05-10T13:06:10;15.80;;;10.45;;
39264;SDS011;42646;51.910;7.724;2023-05-10T13:08:39;14.05;;;9.57;;
39264;SDS011;42646;51.910;7.724;2023-05-10T13:11:07;15.82;;;10.50;;
39264;SDS011;42646;51.910;7.724;2023-05-10T13:13:36;15.10;;;10.40;;
39264;SDS011;42646;51.910;7.724;2023-05-10T13:16:04;15.30;;;9.50;;
39264;SDS011;42646;51.910;7.724;2023-05-10T13:18:32;13.95;;;10.10;;
39264;SDS011;42646;51.910;7.724;2023-05-10T13:21:00;13.25;;;9.13;;
39264;SDS011;42646;51.910;7.724;2023-05-10T13:23:28;17.55;;;11.02;;
39264;SDS011;42646;51.910;7.724;2023-05-10T13:25:56;14.40;;;9.95;;
39264;SDS011;42646;51.910;7.724;2023-05-10T13:28:23;14.63;;;9.88;;
39264;SDS011;42646;51.910;7.724;2023-05-10T13:30:53;14.00;;;9.13;;
39264;SDS011;42646;51.910;7.724;2023-05-10T13:33:21;14.38;;;8.93;;
39264;SDS011;42646;51.910;7.724;2023-05-10T13:35:49;14.63;;;9.77;;
39264;SDS011;42646;51.910;7.724;2023-05-10T13:38:21;14.13;;;9.05;;
39264;SDS011;42646;51.910;7.724;2023-05-10T13:40:48;12.52;;;8.23;;
39264;SDS011;42646;51.910;7.724;2023-05-10T13:43:19;12.13;;;8.43;;
39264;SDS011;42646;51.910;7.724;2023-05-10T13:45:49;9.60;;;6.75;;
39264;SDS011;42646;51.910;7.724;2023-05-10T13:48:17;10.07;;;5.90;;
39264;SDS011;42646;51.910;7.724;2023-05-10T13:50:46;8.82;;;5.68;;
39264;SDS011;42646;51.910;7.724;2023-05-10T13:53:13;8.82;;;5.10;;
39264;SDS011;42646;51.910;7.724;2023-05-10T13:55:41;8.30;;;5.50;;
39264;SDS011;42646;51.910;7.724;2023-05-10T13:58:09;10.68;;;6.82;;
39264;SDS011;42646;51.910;7.724;2023-05-10T14:00:37;16.13;;;8.45;;
39264;SDS011;42646;51.910;7.724;2023-05-10T14:03:06;10.38;;;7.57;;
39264;SDS011;42646;51.910;7.724;2023-05-10T14:05:36;9.93;;;6.95;;
39264;SDS011;42646;51.910;7.724;2023-05-10T14:08:06;10.15;;;6.93;;
39264;SDS011;42646;51.910;7.724;2023-05-10T14:10:35;12.23;;;7.97;;
39264;SDS011;42646;51.910;7.724;2023-05-10T14:13:03;13.88;;;8.00;;
39264;SDS011;42646;51.910;7.724;2023-05-10T14:15:33;13.15;;;7.90;;
39264;SDS011;42646;51.910;7.724;2023-05-10T14:18:02;11.70;;;7.80;;
39264;SDS011;42646;51.910;7.724;2023-05-10T14:20:30;13.45;;;8.15;;
39264;SDS011;42646;51.910;7.724;2023-05-10T14:23:01;12.40;;;8.57;;
39264;SDS011;42646;51.910;7.724;2023-05-10T14:25:28;14.18;;;9.65;;
39264;SDS011;42646;51.910;7.724;2023-05-10T14:27:57;15.52;;;10.27;;
39264;SDS011;42646;51.910;7.724;2023-05-10T14:30:25;13.65;;;10.20;;
39264;SDS011;42646;51.910;7.724;2023-05-10T14:32:54;16.52;;;10.45;;
39264;SDS011;42646;51.910;7.724;2023-05-10T14:35:24;15.98;;;11.18;;
39264;SDS011;42646;51.910;7.724;2023-05-10T14:37:52;17.52;;;11.20;;
39264;SDS011;42646;51.910;7.724;2023-05-10T14:40:22;15.52;;;11.25;;
39264;SDS011;42646;51.910;7.724;2023-05-10T14:42:49;17.42;;;11.35;;
39264;SDS011;42646;51.910;7.724;2023-05-10T14:45:18;17.70;;;11.50;;
39264;SDS011;42646;51.910;7.724;2023-05-10T14:47:47;14.65;;;11.25;;
39264;SDS011;42646;51.910;7.724;2023-05-10T14:50:15;17.15;;;11.70;;
39264;SDS011;42646;51.910;7.724;2023-05-10T14:53:05;15.73;;;11.43;;
39264;SDS011;42646;51.910;7.724;2023-05-10T14:55:34;14.57;;;10.63;;
39264;SDS011;42646;51.910;7.724;2023-05-10T14:58:03;15.43;;;10.27;;
39264;SDS011;42646;51.910;7.724;2023-05-10T15:00:32;15.55;;;9.80;;
39264;SDS011;42646;51.910;7.724;2023-05-10T15:03:00;16.15;;;10.88;;
39264;SDS011;42646;51.910;7.724;2023-05-10T15:05:29;16.30;;;11.05;;
39264;SDS011;42646;51.910;7.724;2023-05-10T15:07:57;15.48;;;10.63;;
39264;SDS011;42646;51.910;7.724;2023-05-10T15:10:27;16.92;;;11.32;;
39264;SDS011;42646;51.910;7.724;2023-05-10T15:12:56;18.52;;;11.88;;
39264;SDS011;42646;51.910;7.724;2023-05-10T15:15:24;16.88;;;11.23;;